Time;durP1;ratioP1;P1;durP2;ratioP2;P2;SDS_P1;SDS_P2;PMS_P1;PMS_P2;Temp;Humidity;BMP_temperature;BMP_pressure;BME280_temperature;BME280_humidity;BME280_pressure;Samples;Min_cycle;Max_cycle;Signal;HPM_P1;HPM_P2
2021/12/04 10:35:24;;;;;;;1.63;1.40;;;;;;;13.56;54.71;98043.00;5055959;28;20424;-62
2021/12/04 10:38:01;;;;;;;1.38;1.27;;;;;;;11.12;62.62;98060.47;5021888;28;20052;-62
2021/12/04 10:40:41;;;;;;;1.50;1.38;;;;;;;9.78;68.15;98057.75;5026457;28;20049;-62
2021/12/04 10:43:15;;;;;;;3.00;1.83;;;;;;;8.80;73.34;98049.59;5029961;28;20187;-62
2021/12/04 10:45:47;;;;;;;4.15;1.63;;;;;;;8.09;76.83;98035.22;5032191;28;20049;-62
2021/12/04 10:48:21;;;;;;;2.63;2.13;;;;;;;7.55;80.91;98020.19;5032273;28;20053;-64
2021/12/04 10:51:09;;;;;;;2.00;1.67;;;;;;;7.24;83.46;98022.72;5032347;28;20046;-62
2021/12/04 10:53:46;;;;;;;2.88;1.90;;;;;;;7.00;85.19;98026.41;5031128;28;20046;-60
2021/12/04 11:04:51;;;;;;;2.75;2.40;;;;;;;6.68;89.31;97987.41;5027240;28;20056;-62
2021/12/04 11:40:36;;;;;;;3.22;2.30;;;;;;;6.77;92.07;97928.31;5044661;28;20041;-62
2021/12/04 11:43:17;;;;;;;2.50;2.30;;;;;;;6.77;91.92;97919.53;5047976;28;20064;-62
2021/12/04 11:48:33;;;;;;;3.50;2.28;;;;;;;6.72;93.68;97927.88;5044776;28;20046;-62
2021/12/04 11:51:01;;;;;;;4.55;2.50;;;;;;;6.74;91.59;97925.06;5047670;28;20103;-63
2021/12/04 11:53:31;;;;;;;5.18;2.78;;;;;;;6.76;91.99;97931.13;5047588;28;20033;-63
2021/12/04 11:55:59;;;;;;;3.38;2.30;;;;;;;6.66;93.45;97925.72;5042671;28;20414;-62
2021/12/04 11:58:31;;;;;;;4.72;2.63;;;;;;;6.64;93.55;97928.47;5042029;28;20095;-63
2021/12/04 12:01:01;;;;;;;3.92;2.83;;;;;;;6.63;94.21;97929.47;5042381;28;20042;-62
2021/12/04 12:03:34;;;;;;;4.45;3.00;;;;;;;6.59;95.31;97922.72;5045187;27;20099;-62
2021/12/04 12:06:07;;;;;;;4.43;2.60;;;;;;;6.55;96.19;97923.94;5047753;28;20045;-59
2021/12/04 12:08:41;;;;;;;7.90;2.60;;;;;;;6.41;97.06;97914.44;5049194;28;20095;-65
2021/12/04 12:11:26;;;;;;;5.78;2.95;;;;;;;6.50;96.83;97928.75;5038310;28;20088;-64
2021/12/04 12:13:59;;;;;;;4.22;2.90;;;;;;;6.49;97.15;97932.38;5030684;28;20052;-64
2021/12/04 12:16:31;;;;;;;12.02;4.35;;;;;;;6.42;98.82;97936.50;5019240;28;20042;-65
2021/12/04 12:19:22;;;;;;;9.60;3.83;;;;;;;6.41;99.41;97938.28;5035627;28;20451;-67
2021/12/04 12:22:00;;;;;;;8.57;3.80;;;;;;;6.37;100.00;97942.97;5034464;28;20057;-61
2021/12/04 12:38:44;;;;;;;3.25;2.10;;;;;;;6.03;100.00;97939.50;5024145;28;20446;-66
2021/12/04 12:41:23;;;;;;;7.32;2.38;;;;;;;5.98;100.00;97935.38;5014716;28;20088;-64
2021/12/04 12:43:50;;;;;;;6.40;2.35;;;;;;;6.02;100.00;97941.31;5034744;28;20053;-65
2021/12/04 12:46:18;;;;;;;7.78;2.60;;;;;;;5.98;100.00;97939.81;5017990;28;20060;-63
2021/12/04 12:48:54;;;;;;;6.47;3.17;;;;;;;5.97;100.00;97932.84;5015759;28;20045;-63
2021/12/04 12:51:27;;;;;;;6.53;2.42;;;;;;;6.04;100.00;97920.00;5018117;28;20048;-63
2021/12/04 12:53:55;;;;;;;4.53;2.97;;;;;;;6.11;100.00;97914.09;5017177;28;20344;-65
2021/12/04 12:56:26;;;;;;;7.95;2.50;;;;;;;6.14;100.00;97912.19;5016141;28;20454;-61
2021/12/04 13:12:59;;;;;;;6.88;3.50;;;;;;;5.86;100.00;97899.28;5019450;28;20034;-65
2021/12/04 13:15:35;;;;;;;5.85;3.38;;;;;;;5.93;100.00;97910.22;5017616;28;20042;-62
2021/12/04 13:18:29;;;;;;;4.68;3.28;;;;;;;5.76;100.00;97907.09;5015741;28;20034;-63
2021/12/04 13:21:09;;;;;;;6.35;2.83;;;;;;;5.75;100.00;97916.00;5019114;28;20064;-62
2021/12/04 13:23:38;;;;;;;8.48;3.90;;;;;;;5.65;100.00;97918.50;5018060;28;20050;-61
2021/12/04 13:26:10;;;;;;;4.88;3.90;;;;;;;5.57;100.00;97926.19;5021532;28;20491;-64
2021/12/04 13:28:41;;;;;;;7.82;3.58;;;;;;;5.49;100.00;97942.63;5022178;28;20431;-57
2021/12/04 13:31:16;;;;;;;7.50;4.40;;;;;;;5.48;100.00;97942.75;5018059;28;20045;-60
2021/12/04 13:33:47;;;;;;;12.18;4.18;;;;;;;5.49;100.00;97945.28;5023150;28;20045;-59
2021/12/04 13:36:23;;;;;;;14.80;4.72;;;;;;;5.50;100.00;97952.25;5009596;28;20467;-63
2021/12/04 13:39:06;;;;;;;8.57;4.70;;;;;;;5.45;100.00;97949.13;5027235;28;20044;-63
2021/12/04 13:41:35;;;;;;;8.98;5.50;;;;;;;5.34;100.00;97957.84;5019547;28;20048;-65
2021/12/04 13:44:06;;;;;;;13.40;5.22;;;;;;;5.37;100.00;97967.38;5016462;28;20092;-68
2021/12/04 13:46:47;;;;;;;;;;;;;;;5.31;100.00;97973.97;5014845;28;20057;-65
2021/12/04 13:49:20;;;;;;;12.07;5.82;;;;;;;5.35;100.00;97991.31;5016571;28;19921;-63
2021/12/04 13:51:59;;;;;;;10.32;5.90;;;;;;;5.30;100.00;97989.00;5015475;28;20432;-64
2021/12/04 13:54:29;;;;;;;13.25;5.72;;;;;;;5.14;100.00;97986.63;5016305;28;20053;-66
2021/12/04 13:56:56;;;;;;;7.78;4.25;;;;;;;5.10;100.00;97987.84;5011780;28;20104;-67
2021/12/04 13:59:26;;;;;;;8.45;5.07;;;;;;;5.06;100.00;97985.53;4998915;28;20046;-57
2021/12/04 14:01:53;;;;;;;9.65;5.82;;;;;;;4.95;100.00;97989.78;5007042;28;20052;-61
2021/12/04 14:04:20;;;;;;;10.82;5.10;;;;;;;4.93;100.00;97999.63;4999306;28;20440;-62
2021/12/04 14:07:02;;;;;;;7.43;4.47;;;;;;;4.93;100.00;98004.94;4996330;28;20101;-63
2021/12/04 14:09:36;;;;;;;;;;;;;;;4.99;100.00;98006.28;5024925;28;20091;-61
2021/12/04 14:12:06;;;;;;;8.02;3.35;;;;;;;5.02;100.00;97995.50;5026296;28;19932;-62
2021/12/04 14:14:35;;;;;;;7.78;3.65;;;;;;;4.95;100.00;97995.06;5020290;28;20033;-62
2021/12/04 14:17:10;;;;;;;5.35;3.17;;;;;;;5.03;100.00;97991.88;5030507;28;20041;-61
2021/12/04 14:19:38;;;;;;;3.97;3.13;;;;;;;4.91;100.00;97996.28;4995031;28;20086;-64
2021/12/04 14:22:10;;;;;;;3.95;2.88;;;;;;;4.89;100.00;97987.59;4996369;28;20057;-62
2021/12/04 14:24:43;;;;;;;11.10;3.30;;;;;;;4.85;100.00;97996.72;4995210;28;20440;-64
2021/12/04 14:27:15;;;;;;;5.35;3.00;;;;;;;4.86;100.00;98004.50;4998146;28;20049;-64
2021/12/04 14:29:46;;;;;;;5.68;3.50;;;;;;;4.92;100.00;97990.03;4996189;28;20049;-63
2021/12/04 14:32:16;;;;;;;6.55;3.08;;;;;;;4.89;100.00;97999.03;4995904;28;20054;-63
2021/12/04 14:34:43;;;;;;;5.70;3.50;;;;;;;4.85;100.00;98002.81;4996073;28;20376;-61
2021/12/04 14:37:14;;;;;;;4.78;3.35;;;;;;;4.83;100.00;98011.81;5000523;28;20046;-61
2021/12/04 14:39:47;;;;;;;5.72;3.53;;;;;;;4.89;100.00;98009.59;5015299;28;20424;-61
2021/12/04 14:42:25;;;;;;;9.68;4.03;;;;;;;4.88;100.00;98014.97;5015301;28;20053;-62
2021/12/04 14:44:59;;;;;;;5.50;4.10;;;;;;;4.94;100.00;98018.97;5015354;28;20041;-62
2021/12/04 14:47:31;;;;;;;5.93;3.80;;;;;;;4.96;100.00;98036.41;5015308;28;20045;-66
2021/12/04 14:50:00;;;;;;;8.35;4.50;;;;;;;4.95;100.00;98040.03;5015412;28;20050;-64
2021/12/04 14:52:30;;;;;;;6.95;4.28;;;;;;;4.90;100.00;98034.22;5022498;28;20037;-63
2021/12/04 14:54:58;;;;;;;10.93;4.90;;;;;;;4.97;100.00;98046.03;5015250;28;20061;-61
2021/12/04 14:57:27;;;;;;;5.13;4.25;;;;;;;4.94;100.00;98050.69;5014873;28;20049;-66
2021/12/04 15:00:29;;;;;;;7.93;4.22;;;;;;;4.89;100.00;98053.69;5004139;28;20045;-66
2021/12/04 15:02:58;;;;;;;;;;;;;;;5.00;100.00;98058.19;5013778;28;20092;-63
2021/12/04 15:05:30;;;;;;;5.88;4.68;;;;;;;4.93;100.00;98064.88;5014071;28;20039;-67
2021/12/04 15:08:28;;;;;;;6.38;4.45;;;;;;;4.92;100.00;98068.47;5013697;28;20056;-65
2021/12/04 15:11:05;;;;;;;7.28;5.28;;;;;;;4.93;100.00;98073.66;5011730;28;20147;-62
2021/12/04 15:13:41;;;;;;;7.20;5.43;;;;;;;4.84;100.00;98083.09;5007674;28;20038;-61
2021/12/04 15:16:14;;;;;;;7.15;4.93;;;;;;;4.84;100.00;98090.16;5012506;28;20048;-65
2021/12/04 15:18:41;;;;;;;7.10;5.80;;;;;;;4.87;100.00;98097.88;5013746;28;20115;-61
2021/12/04 15:21:36;;;;;;;9.27;6.13;;;;;;;4.89;100.00;98101.25;5022654;28;20053;-63
2021/12/04 15:24:04;;;;;;;10.43;6.70;;;;;;;4.88;100.00;98103.06;5023583;28;20049;-61
2021/12/04 15:26:32;;;;;;;9.95;7.63;;;;;;;4.86;100.00;98112.88;5016471;28;20100;-63
2021/12/04 15:28:58;;;;;;;10.80;6.68;;;;;;;4.84;100.00;98120.09;5022390;28;20133;-66
2021/12/04 15:31:26;;;;;;;8.85;5.50;;;;;;;4.83;100.00;98128.13;5016089;28;20046;-64
2021/12/04 15:33:55;;;;;;;7.90;6.05;;;;;;;4.80;100.00;98121.25;5013329;28;20041;-63
2021/12/04 15:36:30;;;;;;;9.73;6.72;;;;;;;4.81;100.00;98130.03;5020765;28;20068;-68
2021/12/04 15:39:05;;;;;;;9.65;6.07;;;;;;;4.82;100.00;98140.50;5032196;28;20052;-69
2021/12/04 15:47:32;;;;;;;15.23;6.50;;;;;;;4.87;100.00;98148.09;4995371;28;20050;-64
2021/12/04 15:53:15;;;;;;;10.05;6.80;;;;;;;4.83;100.00;98154.56;5008756;28;20068;-62
2021/12/04 15:55:49;;;;;;;13.10;7.68;;;;;;;4.92;100.00;98164.50;5021553;28;20050;-62
2021/12/04 15:58:19;;;;;;;13.95;7.97;;;;;;;5.02;100.00;98165.53;5013723;28;20060;-68
2021/12/04 16:00:55;;;;;;;13.15;7.80;;;;;;;4.95;100.00;98161.63;5025704;28;20128;-66
2021/12/04 16:03:26;;;;;;;14.52;7.57;;;;;;;4.99;100.00;98181.63;5005615;28;20089;-66
2021/12/04 16:05:57;;;;;;;11.13;7.25;;;;;;;5.06;100.00;98183.84;4995042;28;20066;-66
2021/12/04 16:08:29;;;;;;;13.20;8.95;;;;;;;5.01;100.00;98185.00;4995184;28;20050;-65
2021/12/04 16:11:13;;;;;;;11.93;8.35;;;;;;;5.09;100.00;98186.25;4998834;28;20124;-68
2021/12/04 16:13:49;;;;;;;15.55;8.88;;;;;;;5.01;100.00;98186.81;5019741;28;20431;-65
2021/12/04 16:16:22;;;;;;;17.95;8.85;;;;;;;5.06;100.00;98189.13;5018299;28;20049;-65
2021/12/04 16:18:53;;;;;;;13.70;9.48;;;;;;;5.08;100.00;98195.16;5018205;28;20057;-71
2021/12/04 16:21:20;;;;;;;16.98;9.38;;;;;;;5.08;100.00;98195.16;5018171;28;20076;-77
2021/12/04 16:23:51;;;;;;;13.75;8.93;;;;;;;5.04;100.00;98207.72;5016803;28;20432;-64
2021/12/04 16:26:23;;;;;;;16.25;7.55;;;;;;;5.01;100.00;98216.72;5007360;28;20472;-65
2021/12/04 16:40:08;;;;;;;10.50;4.70;;;;;;;-148.75;100.00;62386.41;5028731;28;20045;-65
2021/12/04 16:42:36;;;;;;;12.75;5.13;;;;;;;5.01;100.00;81297.56;5036689;28;20042;-66
2021/12/04 16:45:22;;;;;;;14.40;4.20;;;;;;;-148.75;81.03;62386.41;5035192;28;20030;-67
2021/12/04 16:47:51;;;;;;;16.35;4.90;;;;;;;-148.75;100.00;62386.41;5023817;28;20053;-65
2021/12/04 16:50:21;;;;;;;12.20;5.07;;;;;;;-148.75;100.00;62386.41;5017727;28;20042;-62
2021/12/04 16:58:15;;;;;;;14.27;6.85;;;;;;;-148.75;100.00;62386.41;5028490;28;20042;-63
2021/12/04 17:00:46;;;;;;;24.17;7.43;;;;;;;-148.75;100.00;62386.41;5017603;28;20042;-63
2021/12/04 17:03:16;;;;;;;16.35;6.95;;;;;;;-148.75;100.00;62386.41;5010046;28;20077;-68
2021/12/04 17:05:43;;;;;;;24.75;9.05;;;;;;;-148.75;100.00;62386.41;4997958;28;20046;-60
2021/12/04 17:08:10;;;;;;;17.70;8.18;;;;;;;-148.75;100.00;62386.41;4999375;28;20050;-56
2021/12/04 17:10:37;;;;;;;23.58;8.35;;;;;;;-148.75;100.00;62386.41;5021014;28;20095;-61
2021/12/04 17:13:05;;;;;;;13.85;6.95;;;;;;;-148.75;100.00;62386.41;5017530;28;20050;-58
2021/12/04 17:15:34;;;;;;;19.98;7.53;;;;;;;-148.75;100.00;62386.41;5018897;28;20077;-58
2021/12/04 17:18:05;;;;;;;13.75;6.47;;;;;;;-148.75;100.00;62386.41;5025151;28;20409;-57
2021/12/04 17:20:33;;;;;;;14.63;5.90;;;;;;;-148.75;100.00;62386.41;5017142;28;20050;-65
2021/12/04 17:23:00;;;;;;;17.13;6.15;;;;;;;-148.75;100.00;62386.41;5017229;28;20450;-62
2021/12/04 17:25:27;;;;;;;17.55;6.28;;;;;;;-148.75;100.00;62386.41;5014602;28;20046;-62
2021/12/04 17:27:56;;;;;;;14.13;4.78;;;;;;;-148.75;100.00;62386.41;4998860;28;20046;-61
2021/12/04 17:30:23;;;;;;;13.30;4.15;;;;;;;-148.75;100.00;62386.41;4998786;28;20092;-59
2021/12/04 17:32:50;;;;;;;10.52;3.92;;;;;;;-148.75;100.00;62386.41;5006100;28;20052;-63
2021/12/04 17:35:19;;;;;;;14.45;3.90;;;;;;;-148.75;100.00;62386.41;5017285;28;20491;-61
2021/12/04 17:37:46;;;;;;;11.55;3.10;;;;;;;-148.75;100.00;62386.41;5017689;28;20432;-60
2021/12/04 17:40:13;;;;;;;13.35;2.97;;;;;;;-148.75;100.00;62386.41;5017826;28;20037;-61
2021/12/04 17:42:40;;;;;;;7.55;2.92;;;;;;;-148.75;100.00;62386.41;5005857;28;20122;-62
2021/12/04 17:45:10;;;;;;;14.60;3.22;;;;;;;-148.75;100.00;62386.41;4997611;28;20042;-65
2021/12/04 17:47:42;;;;;;;13.18;3.30;;;;;;;-148.75;100.00;62386.41;4997403;28;20428;-60
2021/12/04 17:50:11;;;;;;;12.57;2.85;;;;;;;-148.75;100.00;62386.41;4997138;28;20050;-65
2021/12/04 17:52:40;;;;;;;14.30;3.05;;;;;;;-148.75;100.00;62386.41;4997177;28;20132;-60
2021/12/04 17:55:09;;;;;;;15.68;3.40;;;;;;;-148.75;100.00;62386.41;4995960;28;20459;-61
2021/12/04 17:57:39;;;;;;;15.18;3.65;;;;;;;-148.75;100.00;62386.41;5009861;28;20123;-59
2021/12/04 18:00:11;;;;;;;14.07;3.03;;;;;;;-148.75;100.00;62386.41;4996015;28;20046;-59
2021/12/04 18:02:38;;;;;;;18.58;3.40;;;;;;;-148.75;100.00;62386.41;5009087;28;20058;-60
2021/12/04 18:05:10;;;;;;;7.85;3.53;;;;;;;-148.75;100.00;62386.41;4996844;28;20045;-60
2021/12/04 18:07:37;;;;;;;17.33;3.65;;;;;;;-148.75;100.00;62386.41;4996913;28;20048;-61
2021/12/04 18:10:09;;;;;;;17.35;3.20;;;;;;;-148.75;100.00;62386.41;4996759;28;20108;-58
2021/12/04 18:12:42;;;;;;;13.20;2.75;;;;;;;-148.75;100.00;62386.41;4995653;28;20050;-54
2021/12/04 18:15:19;;;;;;;9.63;2.53;;;;;;;-148.75;100.00;62386.41;4996510;28;20038;-52
2021/12/04 18:17:46;;;;;;;8.07;2.40;;;;;;;-148.75;100.00;62386.41;5004287;28;20329;-66
2021/12/04 18:20:14;;;;;;;21.48;3.05;;;;;;;-148.75;100.00;62386.41;5014420;28;20050;-62
2021/12/04 18:22:41;;;;;;;14.40;2.78;;;;;;;-148.75;100.00;62386.41;4996921;28;20057;-60
2021/12/04 18:25:08;;;;;;;7.03;2.65;;;;;;;-148.75;100.00;62386.41;4998383;28;20069;-62
2021/12/04 18:27:35;;;;;;;9.85;2.67;;;;;;;-148.75;100.00;62386.41;5015311;28;20344;-62
2021/12/04 18:30:07;;;;;;;14.75;2.90;;;;;;;-148.75;100.00;62386.41;5015721;28;20101;-60
2021/12/04 18:32:34;;;;;;;17.10;2.97;;;;;;;-148.75;100.00;62386.41;5001490;28;20046;-62
2021/12/04 18:35:01;;;;;;;8.77;2.80;;;;;;;-148.75;100.00;62386.41;4996235;28;20034;-62
2021/12/04 18:37:28;;;;;;;11.80;2.70;;;;;;;-148.75;100.00;62386.41;4995011;28;20050;-62
2021/12/04 18:39:55;;;;;;;17.15;3.13;;;;;;;-148.75;100.00;62386.41;4996213;28;20050;-62
2021/12/04 18:42:22;;;;;;;11.55;2.75;;;;;;;-148.75;100.00;62386.41;4996163;28;20432;-62
2021/12/04 18:45:02;;;;;;;9.90;3.53;;;;;;;-148.75;100.00;62386.41;4995890;28;20046;-61
2021/12/04 18:47:29;;;;;;;8.43;2.92;;;;;;;-148.75;100.00;62386.41;4996027;28;20054;-63
2021/12/04 18:49:56;;;;;;;14.55;3.40;;;;;;;-148.75;100.00;62386.41;4994847;28;20050;-61
2021/12/04 18:52:24;;;;;;;9.57;2.90;;;;;;;-148.75;100.00;62386.41;5012674;28;20045;-63
2021/12/04 18:55:49;;;;;;;8.70;3.50;;;;;;;-148.75;100.00;62386.41;5013638;28;20052;-61
2021/12/04 18:59:14;;;;;;;14.93;3.33;;;;;;;-148.75;100.00;62386.41;4999321;28;20462;-61
2021/12/04 19:02:43;;;;;;;12.73;2.90;;;;;;;-148.75;100.00;62386.41;5023913;28;20048;-62
2021/12/04 19:06:10;;;;;;;14.60;4.43;;;;;;;-148.75;100.00;62386.41;5035150;28;20392;-61
2021/12/04 19:09:37;;;;;;;8.40;2.78;;;;;;;-148.75;100.00;62386.41;5004161;28;20169;-61
2021/12/04 19:12:05;;;;;;;15.55;3.33;;;;;;;-148.75;100.00;62386.41;5004937;28;20348;-62
2021/12/04 19:15:32;;;;;;;13.05;3.35;;;;;;;-148.75;100.00;62386.41;5007586;28;20034;-62
2021/12/04 19:18:58;;;;;;;15.00;3.58;;;;;;;-148.75;100.00;62386.41;5005726;28;20042;-62
2021/12/04 19:22:24;;;;;;;16.00;3.25;;;;;;;-148.75;100.00;62386.41;5005660;28;20069;-62
2021/12/04 19:25:50;;;;;;;19.92;3.03;;;;;;;-148.75;100.00;62386.41;5005934;28;20149;-62
2021/12/04 19:29:19;;;;;;;16.45;4.15;;;;;;;-148.75;100.00;62386.41;5004338;28;20053;-63
2021/12/04 19:32:53;;;;;;;14.30;3.17;;;;;;;-148.75;100.00;62386.41;4994301;28;20042;-62
2021/12/04 19:51:10;;;;;;;14.75;3.70;;;;;;;-148.75;100.00;62386.41;5015278;28;20053;-69
2021/12/04 19:58:08;;;;;;;20.13;3.78;;;;;;;-148.75;100.00;62386.41;4999012;28;20038;-68
2021/12/04 20:01:45;;;;;;;16.40;4.88;;;;;;;-148.75;100.00;62386.41;4998111;28;20050;-66
2021/12/04 20:16:28;;;;;;;14.88;3.17;;;;;;;-148.75;100.00;62386.41;5014727;28;20050;-63
2021/12/04 20:19:56;;;;;;;18.52;3.55;;;;;;;-148.75;100.00;62386.41;5013806;28;20038;-65
2021/12/04 20:23:23;;;;;;;14.82;3.05;;;;;;;-148.75;100.00;62386.41;4998797;28;20454;-65
2021/12/04 20:26:58;;;;;;;14.38;2.85;;;;;;;-148.75;100.00;62386.41;4997557;28;20038;-67
2021/12/04 20:30:39;;;;;;;12.55;3.38;;;;;;;-148.75;100.00;62386.41;4998632;28;20442;-65
2021/12/04 21:51:57;;;;;;;9.20;2.42;;;;;;;-148.75;100.00;62386.41;5012047;28;20053;-69
2021/12/04 22:10:10;;;;;;;5.38;1.90;;;;;;;-148.75;100.00;62386.41;5014141;28;20073;-72
2021/12/04 22:58:15;;;;;;;21.52;2.67;;;;;;;-148.75;100.00;62386.41;5013458;28;20041;-65
2021/12/04 23:01:49;;;;;;;9.90;2.80;;;;;;;-148.75;100.00;62386.41;5002190;28;20082;-65
2021/12/04 23:12:56;;;;;;;10.13;2.15;;;;;;;-148.75;100.00;62386.41;5014610;28;20034;-64
2021/12/04 23:16:56;;;;;;;14.55;2.17;;;;;;;-148.75;100.00;62386.41;5017517;28;20061;-64
